Time;durP1;ratioP1;P1;durP2;ratioP2;P2;SDS_P1;SDS_P2;PMS_P1;PMS_P2;Temp;Humidity;BMP_temperature;BMP_pressure;BME280_temperature;BME280_humidity;BME280_pressure;Samples;Min_cycle;Max_cycle;Signal;HPM_P1;HPM_P2
2023/04/04 00:00:24;;;;;;;2.53;1.43;;;;;;;1.38;nan;98941.03;5076753;28;20232;-74
2023/04/04 00:02:50;;;;;;;1.40;1.30;;;;;;;1.29;nan;98949.72;5077077;28;20232;-74
2023/04/04 00:05:17;;;;;;;2.93;1.33;;;;;;;1.33;nan;98945.88;5077356;28;20208;-74
2023/04/04 00:07:47;;;;;;;2.03;1.40;;;;;;;1.25;nan;98940.50;5076485;28;20211;-73
2023/04/04 00:10:14;;;;;;;4.93;1.70;;;;;;;1.33;nan;98938.84;5076694;28;20208;-74
2023/04/04 00:12:41;;;;;;;2.63;1.40;;;;;;;1.25;nan;98928.25;5076564;28;20243;-73
2023/04/04 00:15:08;;;;;;;1.80;1.30;;;;;;;1.30;nan;98930.47;5059009;28;20568;-74
2023/04/04 00:17:35;;;;;;;2.10;1.13;;;;;;;1.37;nan;98931.53;5076266;28;20681;-74
2023/04/04 00:20:03;;;;;;;2.47;1.10;;;;;;;1.21;nan;98932.09;5076532;28;20209;-74
2023/04/04 00:22:29;;;;;;;1.87;1.20;;;;;;;1.15;nan;98929.22;5076268;28;20224;-73
2023/04/04 00:24:56;;;;;;;4.20;1.40;;;;;;;1.16;nan;98923.84;5076069;28;20209;-74
2023/04/04 00:27:22;;;;;;;3.53;1.57;;;;;;;1.07;nan;98923.84;5076360;28;20205;-74
2023/04/04 00:29:48;;;;;;;3.83;1.40;;;;;;;1.13;nan;98920.69;5076441;28;20232;-74
2023/04/04 00:32:15;;;;;;;1.90;1.23;;;;;;;1.11;nan;98922.59;5076172;28;20263;-74
2023/04/04 00:34:42;;;;;;;3.37;1.40;;;;;;;1.13;nan;98920.69;5076125;28;20239;-73
2023/04/04 00:37:11;;;;;;;2.33;1.20;;;;;;;1.03;nan;98922.47;5076292;28;20228;-73
2023/04/04 00:39:37;;;;;;;3.10;1.60;;;;;;;0.92;nan;98927.84;5075782;28;20698;-74
2023/04/04 00:42:05;;;;;;;3.43;1.57;;;;;;;0.93;nan;98916.41;5076044;28;20228;-74
2023/04/04 00:44:34;;;;;;;3.33;1.43;;;;;;;0.84;nan;98914.59;5076194;28;20208;-74
2023/04/04 00:47:00;;;;;;;2.50;1.40;;;;;;;0.75;nan;98913.66;5076119;28;20204;-74
2023/04/04 00:49:27;;;;;;;3.40;1.50;;;;;;;0.85;nan;98908.44;5076089;28;20208;-74
2023/04/04 00:51:54;;;;;;;1.80;1.20;;;;;;;0.82;nan;98906.06;5075294;28;20558;-74
2023/04/04 00:54:20;;;;;;;2.70;1.50;;;;;;;0.72;nan;98902.63;5075991;28;20205;-73
2023/04/04 00:56:47;;;;;;;1.93;1.40;;;;;;;0.79;nan;98901.94;5076008;28;20208;-74
2023/04/04 00:59:14;;;;;;;2.63;1.30;;;;;;;0.75;nan;98903.19;5075958;28;20212;-73
2023/04/04 01:01:41;;;;;;;2.87;1.50;;;;;;;0.72;nan;98897.41;5076351;28;20204;-74
2023/04/04 01:04:08;;;;;;;3.13;1.50;;;;;;;0.77;nan;98892.56;5075438;28;20703;-74
2023/04/04 01:06:35;;;;;;;4.60;1.60;;;;;;;0.84;nan;98891.03;5058301;28;20215;-74
2023/04/04 01:09:02;;;;;;;2.47;1.40;;;;;;;0.85;nan;98890.09;5075406;28;20208;-74
2023/04/04 01:11:28;;;;;;;3.50;1.17;;;;;;;0.81;nan;98894.75;5075722;28;20214;-73
2023/04/04 01:13:56;;;;;;;3.00;1.50;;;;;;;0.74;nan;98891.06;5075527;28;20228;-74
2023/04/04 01:16:23;;;;;;;2.53;1.30;;;;;;;0.76;nan;98893.53;5075527;28;20295;-74
2023/04/04 01:18:50;;;;;;;2.13;1.33;;;;;;;0.75;nan;98891.88;5075601;28;20204;-74
2023/04/04 01:21:20;;;;;;;1.67;1.30;;;;;;;0.85;nan;98893.53;5058058;28;20227;-74
2023/04/04 01:24:03;;;;;;;2.97;1.37;;;;;;;0.93;nan;98892.84;5074931;28;20765;-73
2023/04/04 01:26:30;;;;;;;3.00;1.43;;;;;;;0.86;nan;98889.94;5075149;28;20197;-73
2023/04/04 01:28:57;;;;;;;2.07;1.40;;;;;;;0.82;nan;98895.59;5075113;28;20209;-73
2023/04/04 01:31:39;;;;;;;4.27;1.47;;;;;;;0.84;nan;98886.66;5075001;28;20204;-74
2023/04/04 01:34:20;;;;;;;1.97;1.50;;;;;;;0.67;nan;98886.50;5075016;28;20637;-73
2023/04/04 01:37:24;;;;;;;2.23;1.67;;;;;;;0.70;nan;98888.84;5058272;28;20193;-73
2023/04/04 01:39:59;;;;;;;3.53;1.53;;;;;;;0.59;nan;98881.97;5034140;28;20200;-74
2023/04/04 01:42:27;;;;;;;3.53;1.70;;;;;;;0.43;nan;98881.66;5075076;28;20226;-73
2023/04/04 01:44:56;;;;;;;4.23;1.67;;;;;;;0.48;nan;98879.47;5075093;28;20200;-73
2023/04/04 01:47:23;;;;;;;2.63;1.40;;;;;;;0.37;nan;98876.16;5074869;28;20273;-74
2023/04/04 01:49:49;;;;;;;1.90;1.50;;;;;;;0.34;nan;98879.84;5074963;28;20201;-74
2023/04/04 01:52:16;;;;;;;3.50;1.60;;;;;;;0.32;nan;98880.97;5074881;28;20243;-73
2023/04/04 01:54:42;;;;;;;3.40;1.60;;;;;;;0.36;nan;98880.53;5074914;28;20269;-73
2023/04/04 01:57:09;;;;;;;3.13;1.60;;;;;;;0.32;nan;98874.75;5074836;28;20209;-74
2023/04/04 01:59:35;;;;;;;2.93;1.73;;;;;;;0.36;nan;98879.72;5074840;28;20201;-73
2023/04/04 02:02:01;;;;;;;3.07;1.33;;;;;;;0.31;nan;98881.94;5074285;28;20565;-73
2023/04/04 02:04:29;;;;;;;1.77;1.33;;;;;;;0.31;nan;98876.69;5074450;28;20667;-74
2023/04/04 02:06:55;;;;;;;2.17;1.40;;;;;;;0.24;nan;98865.94;5074701;28;20200;-73
2023/04/04 02:09:22;;;;;;;3.77;1.53;;;;;;;0.27;nan;98870.09;5074167;28;20745;-74
2023/04/04 02:11:48;;;;;;;2.57;1.47;;;;;;;0.28;nan;98868.13;5074252;28;20208;-73
2023/04/04 02:14:15;;;;;;;2.43;1.50;;;;;;;0.27;nan;98870.09;5074207;28;20201;-73
2023/04/04 02:16:42;;;;;;;3.37;1.50;;;;;;;0.31;nan;98866.25;5074459;28;20216;-73
2023/04/04 02:19:09;;;;;;;2.43;1.10;;;;;;;0.28;nan;98869.13;5074458;28;20243;-73
2023/04/04 02:21:35;;;;;;;4.13;1.40;;;;;;;0.31;nan;98871.47;5074378;28;20211;-73
2023/04/04 02:24:01;;;;;;;1.60;1.20;;;;;;;0.22;nan;98871.31;5074178;28;20240;-73
2023/04/04 02:26:28;;;;;;;2.03;1.43;;;;;;;0.25;nan;98872.81;5074175;28;20204;-73
2023/04/04 02:28:54;;;;;;;4.37;1.70;;;;;;;0.27;nan;98875.31;5074186;28;20206;-73
2023/04/04 02:31:20;;;;;;;3.63;1.40;;;;;;;0.26;nan;98868.44;5074202;28;20204;-74
2023/04/04 02:33:47;;;;;;;3.20;1.67;;;;;;;0.28;nan;98876.97;5073725;28;20236;-73
2023/04/04 02:36:13;;;;;;;2.60;1.50;;;;;;;0.33;nan;98875.59;5073747;28;20200;-73
2023/04/04 02:38:39;;;;;;;3.00;1.60;;;;;;;0.22;nan;98877.50;5073670;28;20209;-74
2023/04/04 02:41:06;;;;;;;1.77;1.63;;;;;;;0.22;nan;98876.53;5073872;28;20204;-74
2023/04/04 02:43:32;;;;;;;2.23;1.40;;;;;;;0.14;nan;98871.16;5073679;28;20240;-73
2023/04/04 02:45:58;;;;;;;1.73;1.53;;;;;;;0.18;nan;98876.91;5073592;28;20219;-73
2023/04/04 02:48:26;;;;;;;1.97;1.30;;;;;;;0.18;nan;98871.69;5073469;28;20211;-73
2023/04/04 02:50:52;;;;;;;3.53;1.47;;;;;;;0.23;nan;98872.94;5073654;28;20239;-74
2023/04/04 02:53:18;;;;;;;4.90;1.73;;;;;;;0.18;nan;98869.09;5073804;28;20224;-73
2023/04/04 02:55:45;;;;;;;3.17;1.57;;;;;;;0.03;nan;98871.28;5073500;28;20215;-73
2023/04/04 02:58:11;;;;;;;3.10;1.43;;;;;;;0.16;nan;98868.41;5073484;28;20275;-74
2023/04/04 03:00:38;;;;;;;2.17;1.30;;;;;;;0.10;nan;98864.53;5073690;28;20433;-74
2023/04/04 03:03:04;;;;;;;4.23;1.43;;;;;;;0.13;nan;98865.25;5073436;28;20231;-74
2023/04/04 03:05:31;;;;;;;3.37;1.70;;;;;;;0.08;nan;98863.84;5073182;28;20208;-73
2023/04/04 03:07:58;;;;;;;3.20;1.70;;;;;;;0.10;nan;98863.72;5055915;28;20633;-73
2023/04/04 03:10:28;;;;;;;3.20;1.57;;;;;;;0.06;nan;98865.75;5073547;28;20804;-73
2023/04/04 03:12:54;;;;;;;2.60;1.40;;;;;;;0.05;nan;98861.50;5073379;28;20515;-73
2023/04/04 03:15:21;;;;;;;2.23;1.60;;;;;;;0.00;nan;98863.69;5072708;28;20544;-74
2023/04/04 03:17:47;;;;;;;1.97;1.47;;;;;;;-0.04;nan;98872.75;5073203;28;20679;-73
2023/04/04 03:20:15;;;;;;;2.40;1.50;;;;;;;-0.07;nan;98872.19;5073402;28;20438;-73
2023/04/04 03:22:41;;;;;;;3.37;1.97;;;;;;;-0.22;nan;98865.69;5073167;28;20235;-74
2023/04/04 03:25:08;;;;;;;3.17;1.50;;;;;;;-0.17;nan;98866.91;5073174;28;20205;-74
2023/04/04 03:27:35;;;;;;;4.23;1.63;;;;;;;-0.19;nan;98860.19;5073356;28;20433;-74
2023/04/04 03:30:01;;;;;;;2.20;1.50;;;;;;;-0.34;nan;98861.50;5073369;28;20212;-73
2023/04/04 03:32:28;;;;;;;5.73;1.70;;;;;;;-0.26;nan;98861.69;5072894;28;20483;-74
2023/04/04 03:34:54;;;;;;;2.67;1.67;;;;;;;-0.40;nan;98868.06;5073099;28;20212;-74
2023/04/04 03:37:21;;;;;;;2.37;1.40;;;;;;;-0.41;nan;98863.81;5072819;28;20223;-74
2023/04/04 03:39:48;;;;;;;3.57;1.43;;;;;;;-0.19;nan;98852.34;5072986;28;20211;-74
2023/04/04 03:42:14;;;;;;;1.93;1.60;;;;;;;-0.19;nan;98862.78;5073237;28;20553;-73
2023/04/04 03:44:42;;;;;;;1.77;1.40;;;;;;;-0.19;nan;98861.00;5073285;28;20303;-73
2023/04/04 03:47:08;;;;;;;2.53;1.60;;;;;;;-0.13;nan;98859.66;5073151;28;20463;-73
2023/04/04 03:49:35;;;;;;;4.93;1.70;;;;;;;-0.20;nan;98866.38;5073083;28;20299;-73
2023/04/04 03:52:02;;;;;;;2.17;1.50;;;;;;;-0.21;nan;98857.69;5072780;28;20675;-74
2023/04/04 03:54:29;;;;;;;2.93;1.57;;;;;;;-0.19;nan;98860.19;5073149;28;20445;-73
2023/04/04 03:56:56;;;;;;;3.43;1.70;;;;;;;-0.26;nan;98859.06;5072896;28;20585;-73
2023/04/04 03:59:22;;;;;;;2.53;1.80;;;;;;;-0.37;nan;98862.59;5071566;28;20663;-74
2023/04/04 04:01:49;;;;;;;4.77;1.80;;;;;;;-0.37;nan;98864.38;5072225;28;20448;-74
2023/04/04 04:04:15;;;;;;;3.60;1.57;;;;;;;-0.26;nan;98861.69;5072710;28;20220;-73
2023/04/04 04:06:42;;;;;;;4.67;2.00;;;;;;;-0.35;nan;98868.50;5073062;28;20441;-73
2023/04/04 04:09:10;;;;;;;5.13;1.90;;;;;;;-0.28;nan;98864.41;5072378;28;20250;-73
2023/04/04 04:11:36;;;;;;;5.17;1.83;;;;;;;-0.37;nan;98859.97;5072544;28;20208;-73
2023/04/04 04:14:02;;;;;;;3.63;1.80;;;;;;;-0.30;nan;98855.88;5072431;28;20955;-73
2023/04/04 04:16:29;;;;;;;2.30;1.70;;;;;;;-0.40;nan;98862.84;5072777;28;20437;-73
2023/04/04 04:18:56;;;;;;;3.53;2.27;;;;;;;-0.42;nan;98862.16;5072639;28;20437;-73
2023/04/04 04:21:22;;;;;;;2.67;1.97;;;;;;;-0.27;nan;98866.06;5072622;28;20536;-73
2023/04/04 04:23:48;;;;;;;2.73;1.80;;;;;;;-0.37;nan;98867.81;5072520;28;20598;-73
2023/04/04 04:26:15;;;;;;;3.50;2.03;;;;;;;-0.41;nan;98861.19;5073205;28;20201;-73
2023/04/04 04:28:41;;;;;;;4.47;1.70;;;;;;;-0.42;nan;98864.78;5076396;28;20223;-74
2023/04/04 04:31:09;;;;;;;2.73;1.50;;;;;;;-0.49;nan;98866.25;5076301;28;20473;-73
2023/04/04 04:33:36;;;;;;;4.80;2.10;;;;;;;-0.43;nan;98863.13;5075984;28;20315;-73
2023/04/04 04:36:03;;;;;;;3.87;2.00;;;;;;;-0.48;nan;98864.47;5076010;28;20440;-73
2023/04/04 04:38:31;;;;;;;3.63;1.70;;;;;;;-0.44;nan;98856.22;5075445;28;20664;-73
2023/04/04 04:40:57;;;;;;;4.50;2.60;;;;;;;-0.45;nan;98861.59;5075497;28;20449;-74
2023/04/04 04:43:24;;;;;;;2.37;2.00;;;;;;;-0.45;nan;98866.84;5074946;28;20480;-74
2023/04/04 04:45:50;;;;;;;2.93;2.00;;;;;;;-0.37;nan;98864.38;5075155;28;20200;-73
2023/04/04 04:48:17;;;;;;;4.43;1.47;;;;;;;-0.37;nan;98864.38;5075237;28;20219;-73
2023/04/04 04:50:47;;;;;;;3.67;2.00;;;;;;;-0.40;nan;98870.69;5075466;28;20204;-73
2023/04/04 04:53:14;;;;;;;3.23;1.60;;;;;;;-0.42;nan;98867.38;5075937;28;20228;-73
2023/04/04 04:55:41;;;;;;;3.00;1.80;;;;;;;-0.33;nan;98873.59;5075814;28;20207;-73
2023/04/04 04:58:09;;;;;;;3.27;2.10;;;;;;;-0.36;nan;98874.69;5076042;28;20232;-73
2023/04/04 05:00:36;;;;;;;3.37;1.93;;;;;;;-0.26;nan;98872.94;5075246;28;20204;-73
2023/04/04 05:03:05;;;;;;;3.13;1.97;;;;;;;-0.29;nan;98875.00;5074744;28;20461;-73
2023/04/04 05:05:33;;;;;;;6.00;2.00;;;;;;;-0.29;nan;98873.22;5075735;28;20215;-73
2023/04/04 05:08:02;;;;;;;6.47;2.00;;;;;;;-0.30;nan;98882.00;5075418;28;20208;-73
2023/04/04 05:10:29;;;;;;;4.63;2.10;;;;;;;-0.34;nan;98880.63;5075479;28;20448;-73
2023/04/04 05:12:56;;;;;;;2.67;1.97;;;;;;;-0.30;nan;98876.78;5074797;28;20493;-73
2023/04/04 05:15:24;;;;;;;4.47;2.03;;;;;;;-0.37;nan;98880.03;5074446;28;20215;-73
2023/04/04 05:17:51;;;;;;;3.37;2.03;;;;;;;-0.38;nan;98884.47;5074835;28;20445;-73
2023/04/04 05:20:17;;;;;;;3.90;2.07;;;;;;;-0.29;nan;98877.59;5075205;28;20224;-73
2023/04/04 05:22:44;;;;;;;4.80;2.40;;;;;;;-0.28;nan;98879.25;5074434;28;20459;-73
2023/04/04 05:25:12;;;;;;;3.40;1.93;;;;;;;-0.28;nan;98880.09;5074690;28;20236;-73
2023/04/04 05:27:39;;;;;;;2.50;2.10;;;;;;;-0.18;nan;98882.75;5075001;28;20215;-73
2023/04/04 05:30:06;;;;;;;2.50;2.30;;;;;;;-0.06;nan;98884.28;5074615;28;20212;-73
2023/04/04 05:32:33;;;;;;;3.20;2.10;;;;;;;-0.09;nan;98885.38;5074320;28;20236;-73
2023/04/04 05:35:00;;;;;;;2.67;1.97;;;;;;;-0.04;nan;98888.44;5074444;28;20191;-73
2023/04/04 05:37:26;;;;;;;4.50;2.07;;;;;;;-0.17;nan;98890.44;5073930;28;20236;-73
2023/04/04 05:39:54;;;;;;;5.73;2.43;;;;;;;-0.08;nan;98884.41;5074557;28;20667;-73
2023/04/04 05:42:20;;;;;;;3.73;1.90;;;;;;;-0.06;nan;98898.19;5074574;28;20473;-73
2023/04/04 05:44:46;;;;;;;4.03;2.30;;;;;;;0.19;nan;98895.09;5073766;28;20303;-73
2023/04/04 05:47:13;;;;;;;6.13;2.27;;;;;;;0.22;nan;98887.00;5074476;28;20437;-73
2023/04/04 05:49:39;;;;;;;5.27;2.10;;;;;;;0.28;nan;98886.44;5074698;28;20433;-73
2023/04/04 05:52:06;;;;;;;2.70;2.20;;;;;;;0.32;nan;98894.88;5074253;28;20205;-73
2023/04/04 05:54:32;;;;;;;3.77;2.53;;;;;;;0.53;nan;98894.78;5074016;28;20675;-73
2023/04/04 05:56:59;;;;;;;4.33;2.40;;;;;;;0.47;nan;98893.50;5074387;28;20563;-73
2023/04/04 05:59:25;;;;;;;6.77;2.70;;;;;;;0.23;nan;98891.25;5074325;28;20291;-73
2023/04/04 06:01:52;;;;;;;4.73;2.00;;;;;;;0.46;nan;98894.47;5074115;28;20205;-73
2023/04/04 06:04:18;;;;;;;5.33;2.57;;;;;;;0.45;nan;98898.03;5074110;28;20556;-73
2023/04/04 06:06:46;;;;;;;4.70;2.23;;;;;;;0.46;nan;98899.72;5073948;28;20207;-74
2023/04/04 06:09:12;;;;;;;4.57;2.30;;;;;;;0.52;nan;98896.53;5073909;28;20266;-73
2023/04/04 06:11:38;;;;;;;5.37;2.17;;;;;;;0.66;nan;98893.53;5074437;28;20313;-74
2023/04/04 06:14:06;;;;;;;3.03;2.10;;;;;;;0.69;nan;98900.28;5073399;28;20224;-74
2023/04/04 06:16:33;;;;;;;5.00;2.37;;;;;;;0.84;nan;98896.28;5073331;28;20664;-74
2023/04/04 06:18:59;;;;;;;4.87;2.70;;;;;;;0.76;nan;98904.81;5073381;28;20215;-74
2023/04/04 06:21:25;;;;;;;4.77;2.53;;;;;;;0.68;nan;98906.47;5073293;28;20204;-74
2023/04/04 06:23:52;;;;;;;5.17;2.40;;;;;;;0.76;nan;98902.19;5073232;28;20231;-74
2023/04/04 06:26:19;;;;;;;3.27;2.30;;;;;;;0.66;nan;98897.91;5073367;28;20211;-74
2023/04/04 06:28:50;;;;;;;4.23;2.07;;;;;;;0.50;nan;98893.25;5073704;28;20208;-73
2023/04/04 06:31:17;;;;;;;7.23;2.27;;;;;;;0.68;nan;98893.41;5073038;28;20667;-74
2023/04/04 06:33:43;;;;;;;4.17;2.10;;;;;;;0.83;nan;98889.41;5072911;28;20231;-73
2023/04/04 06:36:11;;;;;;;4.67;2.67;;;;;;;0.98;nan;98895.88;5073042;28;20751;-74
2023/04/04 06:38:37;;;;;;;3.50;2.37;;;;;;;1.07;nan;98887.19;5072766;28;20211;-74
2023/04/04 06:41:04;;;;;;;4.13;2.53;;;;;;;1.30;nan;98889.34;5072924;28;20311;-73
2023/04/04 06:43:30;;;;;;;7.00;2.63;;;;;;;1.31;nan;98888.38;5072823;28;20231;-73
2023/04/04 06:45:56;;;;;;;3.50;2.20;;;;;;;1.32;nan;98887.44;5073461;28;20579;-74
2023/04/04 06:48:23;;;;;;;4.10;2.30;;;;;;;1.43;nan;98895.13;5072948;28;20200;-74
2023/04/04 06:50:50;;;;;;;5.70;2.60;;;;;;;1.50;nan;98895.38;5073302;28;20207;-74
2023/04/04 06:53:16;;;;;;;3.37;2.00;;;;;;;1.59;nan;98898.00;5072843;28;20270;-73
2023/04/04 06:55:43;;;;;;;5.17;2.20;;;;;;;1.71;nan;98893.41;5073221;28;20255;-74
2023/04/04 06:58:09;;;;;;;5.83;2.17;;;;;;;1.89;nan;98886.44;5073342;28;20200;-74
2023/04/04 07:00:35;;;;;;;2.30;2.03;;;;;;;1.85;nan;98882.44;5073382;28;20209;-73
2023/04/04 07:03:02;;;;;;;3.27;2.03;;;;;;;1.82;nan;98887.97;5073267;28;20425;-74
2023/04/04 07:05:28;;;;;;;3.40;2.00;;;;;;;1.82;nan;98885.34;5073004;28;20224;-74
2023/04/04 07:07:55;;;;;;;2.27;1.97;;;;;;;1.94;nan;98879.75;5073167;28;20209;-74
2023/04/04 07:10:23;;;;;;;4.17;2.10;;;;;;;1.89;nan;98882.00;5073174;28;20209;-73
2023/04/04 07:12:49;;;;;;;2.00;1.77;;;;;;;1.97;nan;98886.50;5072924;28;20229;-74
2023/04/04 07:15:16;;;;;;;2.20;2.00;;;;;;;2.00;nan;98884.44;5072659;28;20204;-74
2023/04/04 07:17:43;;;;;;;2.93;1.90;;;;;;;1.96;nan;98879.63;5072771;28;20594;-74
2023/04/04 07:20:10;;;;;;;3.97;2.10;;;;;;;2.07;nan;98882.06;5072909;28;20207;-74
2023/04/04 07:22:40;;;;;;;4.27;2.23;;;;;;;2.19;nan;98888.75;5073017;28;20343;-74
2023/04/04 07:25:07;;;;;;;3.70;1.67;;;;;;;2.02;nan;98882.50;5072446;28;20226;-74
2023/04/04 07:27:34;;;;;;;5.50;2.03;;;;;;;2.29;nan;98886.91;5072689;28;20211;-74
2023/04/04 07:30:01;;;;;;;3.10;2.03;;;;;;;2.38;nan;98886.00;5072455;28;20243;-74
2023/04/04 07:32:28;;;;;;;5.70;2.03;;;;;;;2.43;nan;98881.97;5072692;28;20679;-74
2023/04/04 07:34:54;;;;;;;4.67;2.00;;;;;;;2.37;nan;98876.50;5072798;28;20189;-74
2023/04/04 07:37:21;;;;;;;2.83;1.73;;;;;;;2.51;nan;98889.94;5072998;28;20204;-74
2023/04/04 07:39:48;;;;;;;1.93;1.73;;;;;;;2.58;nan;98888.38;5072994;28;20205;-74
2023/04/04 07:42:21;;;;;;;2.90;1.80;;;;;;;2.58;nan;98882.31;5072883;28;20224;-74
2023/04/04 07:44:48;;;;;;;3.97;2.17;;;;;;;2.55;nan;98880.81;5072667;28;20240;-74
2023/04/04 07:47:14;;;;;;;3.57;1.80;;;;;;;2.67;nan;98879.59;5072450;28;20216;-74
2023/04/04 07:49:41;;;;;;;3.87;1.87;;;;;;;2.92;nan;98883.28;5072864;28;20200;-74
2023/04/04 07:52:07;;;;;;;2.70;1.70;;;;;;;3.02;nan;98886.66;5072846;28;20201;-74
2023/04/04 07:54:34;;;;;;;2.80;2.00;;;;;;;3.05;nan;98889.81;5072897;28;20208;-74
2023/04/04 07:57:04;;;;;;;2.27;1.57;;;;;;;2.84;nan;98891.09;5072722;28;20201;-74
2023/04/04 07:59:30;;;;;;;2.93;2.10;;;;;;;3.10;nan;98884.09;5072490;28;20266;-74
2023/04/04 08:01:57;;;;;;;3.70;1.97;;;;;;;3.16;nan;98884.31;5076103;28;20200;-74
2023/04/04 08:04:23;;;;;;;3.07;1.83;;;;;;;3.21;nan;98889.13;5076606;28;20227;-74
2023/04/04 08:06:50;;;;;;;2.40;1.60;;;;;;;3.25;nan;98885.22;5076592;28;20211;-74
2023/04/04 08:09:16;;;;;;;2.80;1.93;;;;;;;3.26;nan;98881.59;5076715;28;20204;-74
2023/04/04 08:11:43;;;;;;;4.30;1.90;;;;;;;3.20;nan;98882.22;5076496;28;20209;-74
2023/04/04 08:14:10;;;;;;;2.30;1.67;;;;;;;3.31;nan;98882.81;5077005;28;20231;-74
2023/04/04 08:16:37;;;;;;;4.07;1.83;;;;;;;3.36;nan;98885.78;5076258;28;20270;-74
2023/04/04 08:19:03;;;;;;;2.20;1.70;;;;;;;3.61;nan;98876.25;5076473;28;20211;-74
2023/04/04 08:21:30;;;;;;;4.47;1.90;;;;;;;3.55;nan;98880.31;5076420;28;20201;-74
2023/04/04 08:23:57;;;;;;;5.23;1.87;;;;;;;3.52;nan;98880.63;5076123;28;20256;-74
2023/04/04 08:26:23;;;;;;;2.83;1.70;;;;;;;3.55;nan;98882.94;5076237;28;20200;-74
2023/04/04 08:28:50;;;;;;;3.07;1.63;;;;;;;3.77;nan;98877.16;5075955;28;20211;-74
2023/04/04 08:31:17;;;;;;;4.17;1.97;;;;;;;3.78;nan;98875.34;5075975;28;20204;-74
2023/04/04 08:33:44;;;;;;;2.80;1.87;;;;;;;3.76;nan;98882.59;5075661;28;20323;-74
2023/04/04 08:36:10;;;;;;;5.10;2.00;;;;;;;3.83;nan;98886.22;5075893;28;20303;-74
2023/04/04 08:38:36;;;;;;;3.33;1.70;;;;;;;3.89;nan;98875.09;5075712;28;20216;-74
2023/04/04 08:41:03;;;;;;;3.47;1.90;;;;;;;3.99;nan;98876.63;5075756;28;20217;-75
2023/04/04 08:43:34;;;;;;;2.97;1.70;;;;;;;4.10;nan;98883.38;5075972;28;20236;-74
2023/04/04 08:46:04;;;;;;;3.13;1.90;;;;;;;3.94;nan;98878.06;5075625;28;20239;-75
2023/04/04 08:48:32;;;;;;;3.53;2.13;;;;;;;4.22;nan;98876.88;5058040;28;20618;-74
2023/04/04 08:51:00;;;;;;;6.77;2.33;;;;;;;4.31;nan;98878.53;5057643;28;20671;-73
2023/04/04 08:53:28;;;;;;;2.20;1.57;;;;;;;4.50;nan;98876.47;5075359;28;20225;-74
2023/04/04 08:55:56;;;;;;;2.70;1.83;;;;;;;4.50;nan;98880.91;5075346;28;20207;-73
2023/04/04 08:58:23;;;;;;;2.80;1.77;;;;;;;4.52;nan;98876.31;5075584;28;20278;-74
2023/04/04 09:00:53;;;;;;;5.17;1.73;;;;;;;4.45;nan;98883.19;5075830;28;20211;-73
2023/04/04 09:03:27;;;;;;;2.40;1.90;;;;;;;4.39;nan;98874.13;5075688;28;20228;-74
2023/04/04 09:05:55;;;;;;;3.37;1.57;;;;;;;4.50;nan;98880.91;5075115;28;20318;-73
2023/04/04 09:08:23;;;;;;;3.03;1.70;;;;;;;4.56;nan;98878.44;5075204;28;20204;-74
2023/04/04 09:10:51;;;;;;;4.03;1.90;;;;;;;4.49;nan;98885.38;5075223;28;20272;-75
2023/04/04 09:13:18;;;;;;;3.07;1.80;;;;;;;4.69;nan;98888.50;5074517;28;20228;-74
2023/04/04 09:15:52;;;;;;;2.10;1.50;;;;;;;4.78;nan;98877.84;5074977;28;20737;-74
2023/04/04 09:18:19;;;;;;;4.07;1.63;;;;;;;4.77;nan;98889.38;5074990;28;20200;-74
2023/04/04 09:20:49;;;;;;;3.30;1.70;;;;;;;4.84;nan;98879.00;5074826;28;20663;-75
2023/04/04 09:23:19;;;;;;;2.73;1.70;;;;;;;4.98;nan;98870.47;5074979;28;20221;-75
2023/04/04 09:25:49;;;;;;;3.57;1.90;;;;;;;5.29;nan;98884.63;5074968;28;20228;-75
2023/04/04 09:28:16;;;;;;;2.27;1.70;;;;;;;5.53;nan;98881.97;5074611;28;20235;-74
2023/04/04 09:30:43;;;;;;;3.57;1.93;;;;;;;5.58;nan;98884.91;5074511;28;20212;-75
2023/04/04 09:33:12;;;;;;;2.67;1.80;;;;;;;5.21;nan;98877.53;5074505;28;20243;-74
2023/04/04 09:35:40;;;;;;;3.37;1.90;;;;;;;4.89;nan;98866.16;5057060;28;20197;-74
2023/04/04 09:38:07;;;;;;;3.20;1.50;;;;;;;5.17;nan;98870.97;5074719;28;20580;-75
2023/04/04 09:40:37;;;;;;;3.07;1.77;;;;;;;5.40;nan;98868.47;5075000;28;20201;-75
2023/04/04 09:43:08;;;;;;;3.67;2.10;;;;;;;5.40;nan;98871.09;5074421;28;20228;-75
2023/04/04 09:45:36;;;;;;;3.10;1.80;;;;;;;5.63;nan;98872.88;5074416;28;20220;-74
2023/04/04 09:48:02;;;;;;;4.27;1.87;;;;;;;5.75;nan;98874.16;5074610;28;20200;-74
2023/04/04 09:50:29;;;;;;;2.20;1.67;;;;;;;5.75;nan;98882.06;5074564;28;20211;-74
2023/04/04 09:52:59;;;;;;;5.20;2.20;;;;;;;5.88;nan;98876.31;5074012;28;20622;-75
2023/04/04 09:55:36;;;;;;;2.30;1.67;;;;;;;5.91;nan;98876.78;5074553;28;20224;-75
2023/04/04 09:58:12;;;;;;;3.93;2.00;;;;;;;5.86;nan;98870.38;5074627;28;20242;-75
2023/04/04 10:00:43;;;;;;;2.13;1.70;;;;;;;5.70;nan;98867.75;5074423;28;20196;-74
2023/04/04 10:03:11;;;;;;;2.83;2.00;;;;;;;5.44;nan;98864.50;5074265;28;20246;-74
2023/04/04 10:05:38;;;;;;;3.77;2.00;;;;;;;5.88;nan;98868.41;5073696;28;20227;-74
2023/04/04 10:08:18;;;;;;;2.93;1.93;;;;;;;5.91;nan;98870.69;5074026;28;20238;-74
2023/04/04 10:11:10;;;;;;;3.13;2.03;;;;;;;6.31;nan;98859.97;5074606;28;20540;-74
2023/04/04 10:13:39;;;;;;;2.80;1.83;;;;;;;6.43;nan;98856.75;5070009;28;20224;-75
2023/04/04 10:16:07;;;;;;;2.20;1.67;;;;;;;6.41;nan;98853.47;5073760;28;20201;-75
2023/04/04 10:18:34;;;;;;;2.03;1.63;;;;;;;6.67;nan;98866.38;5073483;28;20639;-74
2023/04/04 10:21:05;;;;;;;5.13;2.20;;;;;;;6.52;nan;98860.19;5073867;28;20678;-75
2023/04/04 10:23:33;;;;;;;2.30;1.90;;;;;;;6.51;nan;98863.84;5073210;28;20224;-74
2023/04/04 10:26:00;;;;;;;2.10;1.90;;;;;;;6.36;nan;98858.47;5073170;28;20671;-73
2023/04/04 10:28:27;;;;;;;2.07;1.87;;;;;;;5.73;nan;98872.69;5073621;28;20205;-73
2023/04/04 10:31:09;;;;;;;4.90;1.90;;;;;;;5.86;nan;98851.91;5073812;28;20212;-74
2023/04/04 10:33:38;;;;;;;3.67;2.20;;;;;;;6.30;nan;98859.16;5073411;28;20238;-73
2023/04/04 10:36:08;;;;;;;4.13;1.83;;;;;;;6.20;nan;98865.63;5073744;28;20201;-73
2023/04/04 10:38:42;;;;;;;2.33;1.57;;;;;;;6.33;nan;98850.88;5073613;28;20575;-74
2023/04/04 10:41:12;;;;;;;2.43;1.70;;;;;;;6.63;nan;98846.56;5074103;28;20193;-74
2023/04/04 10:43:41;;;;;;;2.50;1.70;;;;;;;6.60;nan;98847.75;5055578;28;20239;-74
2023/04/04 10:46:13;;;;;;;3.20;2.27;;;;;;;6.78;nan;98840.38;5073324;28;20224;-74
2023/04/04 10:48:41;;;;;;;2.87;1.90;;;;;;;6.80;nan;98850.75;5073511;28;20193;-74
2023/04/04 10:51:10;;;;;;;3.40;2.07;;;;;;;6.32;nan;98845.75;5073559;28;20211;-74
2023/04/04 10:53:39;;;;;;;3.07;2.27;;;;;;;6.11;nan;98840.28;5072961;28;20640;-74
2023/04/04 10:56:06;;;;;;;3.47;2.10;;;;;;;6.53;nan;98845.97;5073453;28;20571;-73
2023/04/04 10:58:39;;;;;;;2.77;1.90;;;;;;;6.86;nan;98840.31;5073227;28;20201;-74
2023/04/04 11:01:07;;;;;;;3.87;2.17;;;;;;;6.52;nan;98833.78;5073329;28;20217;-74
2023/04/04 11:04:12;;;;;;;4.00;2.17;;;;;;;6.77;nan;98844.00;5073302;28;20235;-74
2023/04/04 11:07:11;;;;;;;2.40;1.63;;;;;;;6.77;nan;98837.91;5072790;28;20601;-74
2023/04/04 11:10:00;;;;;;;2.17;1.80;;;;;;;6.85;nan;98829.91;5028978;28;20208;-74
2023/04/04 11:12:28;;;;;;;2.53;1.70;;;;;;;7.06;nan;98822.16;5073426;28;20225;-74
2023/04/04 11:15:15;;;;;;;3.07;1.90;;;;;;;6.97;nan;98833.78;5072829;28;20209;-74
2023/04/04 11:18:08;;;;;;;2.47;1.90;;;;;;;6.76;nan;98823.03;5072332;28;20205;-74
2023/04/04 11:20:37;;;;;;;4.33;2.10;;;;;;;6.90;nan;98822.28;5048207;28;20243;-74
2023/04/04 11:23:06;;;;;;;3.97;2.00;;;;;;;6.98;nan;98827.50;5072730;28;20260;-74
2023/04/04 11:25:34;;;;;;;3.43;2.10;;;;;;;7.10;nan;98818.16;5072507;28;20699;-74
2023/04/04 11:28:09;;;;;;;2.00;1.80;;;;;;;6.75;nan;98824.03;5072970;28;20208;-74
2023/04/04 11:30:42;;;;;;;3.37;2.00;;;;;;;6.67;nan;98818.81;5073073;28;20264;-73
2023/04/04 11:33:09;;;;;;;3.27;2.43;;;;;;;6.39;nan;98821.16;5072559;28;20734;-73
2023/04/04 11:35:38;;;;;;;3.97;2.07;;;;;;;6.20;nan;98823.41;5074106;28;20632;-73
2023/04/04 11:38:12;;;;;;;3.40;1.90;;;;;;;6.48;nan;98819.28;5077037;28;20273;-74
2023/04/04 11:40:41;;;;;;;3.83;1.67;;;;;;;6.81;nan;98812.75;5077185;28;20188;-74
2023/04/04 11:43:12;;;;;;;2.27;2.00;;;;;;;6.75;nan;98803.72;5076982;28;20263;-75
2023/04/04 11:45:44;;;;;;;2.17;1.80;;;;;;;6.93;nan;98819.28;5076755;28;20750;-74
2023/04/04 11:48:11;;;;;;;3.13;2.17;;;;;;;6.99;nan;98818.56;5077048;28;20284;-74
2023/04/04 11:50:39;;;;;;;4.17;2.17;;;;;;;6.91;nan;98818.63;5076487;28;20303;-75
2023/04/04 11:53:08;;;;;;;3.43;2.00;;;;;;;6.96;nan;98811.81;5076852;28;20224;-75
2023/04/04 11:55:40;;;;;;;2.37;1.83;;;;;;;6.83;nan;98805.50;5077341;28;20219;-74
2023/04/04 11:58:12;;;;;;;2.53;2.00;;;;;;;7.06;nan;98801.00;5077458;28;20196;-74
2023/04/04 12:00:40;;;;;;;3.13;1.70;;;;;;;7.00;nan;98802.53;5076993;28;20205;-74